createdAt,value
2017-10-09T00:00:38.049Z,99.80
2017-10-09T00:03:08.555Z,99.80
2017-10-09T00:05:39.058Z,99.60
2017-10-09T00:08:09.587Z,99.40
2017-10-09T00:10:40.091Z,99.50
2017-10-09T00:13:11.075Z,99.10
2017-10-09T00:15:41.828Z,99.10
2017-10-09T00:18:12.728Z,99.20
2017-10-09T00:20:43.353Z,99.30
2017-10-09T00:23:14.190Z,99.30
2017-10-09T00:25:44.908Z,99.30
2017-10-09T00:28:15.629Z,99.40
2017-10-09T00:30:47.628Z,99.60
2017-10-09T00:33:18.521Z,99.60
2017-10-09T00:35:49.809Z,99.60
2017-10-09T00:38:20.352Z,99.90
2017-10-09T00:40:50.902Z,99.30
2017-10-09T00:43:21.901Z,99.00
2017-10-09T00:45:53.176Z,99.10
2017-10-09T00:48:24.020Z,99.10
2017-10-09T00:50:54.641Z,99.10
2017-10-09T00:53:25.229Z,99.00
2017-10-09T00:55:55.764Z,98.90
2017-10-09T00:58:26.351Z,98.50
2017-10-09T01:00:57.281Z,98.50
2017-10-09T01:03:27.792Z,98.20
2017-10-09T01:05:58.305Z,98.70
2017-10-09T01:08:28.813Z,98.70
2017-10-09T01:10:59.356Z,98.60
2017-10-09T01:13:30.392Z,98.40
2017-10-09T01:16:00.877Z,98.30
2017-10-09T01:18:31.869Z,98.20
2017-10-09T01:21:02.357Z,98.00
2017-10-09T01:23:33.648Z,97.80
2017-10-09T01:26:04.151Z,97.80
2017-10-09T01:28:34.648Z,97.80
2017-10-09T01:31:05.408Z,97.40
2017-10-09T01:33:36.667Z,97.60
2017-10-09T01:36:07.186Z,97.60
2017-10-09T01:38:37.685Z,97.00
2017-10-09T01:41:08.185Z,97.10
2017-10-09T01:43:38.712Z,96.90
2017-10-09T01:46:09.229Z,96.80
2017-10-09T01:48:40.259Z,96.60
2017-10-09T01:51:10.752Z,96.60
2017-10-09T01:53:42.013Z,95.60
2017-10-09T01:56:12.521Z,95.60
2017-10-09T01:58:43.813Z,95.40
2017-10-09T02:01:14.948Z,95.30
2017-10-09T02:03:45.444Z,95.40
2017-10-09T02:06:16.725Z,95.20
2017-10-09T02:08:47.232Z,95.20
2017-10-09T02:11:18.497Z,94.90
2017-10-09T02:13:49.041Z,94.90
2017-10-09T02:16:19.544Z,94.50
2017-10-09T02:18:50.698Z,94.80
2017-10-09T02:21:21.250Z,94.90
2017-10-09T02:23:52.549Z,94.80
2017-10-09T02:26:23.825Z,94.70
2017-10-09T02:28:54.340Z,94.70
2017-10-09T02:31:25.202Z,95.00
2017-10-09T02:33:55.731Z,95.10
2017-10-09T02:36:26.592Z,94.50
2017-10-09T02:38:57.164Z,94.80
2017-10-09T02:41:27.673Z,94.90
2017-10-09T02:43:59.048Z,94.50
2017-10-09T02:46:29.581Z,94.50
2017-10-09T02:49:00.371Z,93.80
2017-10-09T02:51:30.893Z,93.80
2017-10-09T02:54:01.402Z,93.70
2017-10-09T02:56:31.898Z,93.50
2017-10-09T02:59:02.407Z,93.50
2017-10-09T03:01:33.885Z,94.20
2017-10-09T03:04:04.391Z,94.20
2017-10-09T03:06:36.178Z,93.60
2017-10-09T03:09:06.921Z,93.60
2017-10-09T03:11:37.445Z,93.70
2017-10-09T03:14:07.996Z,93.90
2017-10-09T03:16:38.540Z,93.90
2017-10-09T03:19:09.076Z,93.40
2017-10-09T03:21:39.804Z,93.40
2017-10-09T03:24:11.444Z,93.50
2017-10-09T03:26:46.618Z,93.40
2017-10-09T03:29:32.508Z,93.50
2017-10-09T03:32:04.264Z,93.50
2017-10-09T03:34:35.791Z,93.40
2017-10-09T03:37:06.513Z,93.40
2017-10-09T03:39:37.204Z,93.50
2017-10-09T03:42:07.958Z,93.50
2017-10-09T03:44:39.136Z,92.90
2017-10-09T03:47:09.622Z,92.40
2017-10-09T03:49:40.633Z,92.40
2017-10-09T03:52:11.918Z,91.70
2017-10-09T03:54:42.448Z,91.60
2017-10-09T03:57:12.960Z,91.60
2017-10-09T03:59:43.488Z,91.30
2017-10-09T04:02:14.649Z,90.80
2017-10-09T04:04:45.164Z,91.30
2017-10-09T04:07:15.670Z,90.90
2017-10-09T04:09:46.940Z,91.10
2017-10-09T04:12:17.437Z,91.10
2017-10-09T04:14:49.332Z,90.50
2017-10-09T04:17:19.828Z,90.50
2017-10-09T04:19:51.561Z,90.50
2017-10-09T04:22:22.090Z,90.50
2017-10-09T04:24:52.630Z,90.50
2017-10-09T04:27:23.130Z,90.70
2017-10-09T04:29:53.865Z,90.70
2017-10-09T04:32:25.002Z,90.80
2017-10-09T04:34:56.378Z,90.80
2017-10-09T04:37:26.922Z,91.10
2017-10-09T04:39:58.249Z,91.60
2017-10-09T04:42:28.778Z,91.60
2017-10-09T04:44:59.608Z,91.70
2017-10-09T04:47:30.125Z,91.80
2017-10-09T04:50:00.851Z,92.00
2017-10-09T04:52:31.536Z,92.20
2017-10-09T04:55:02.817Z,92.70
2017-10-09T04:57:33.304Z,92.70
2017-10-09T05:00:04.599Z,92.50
2017-10-09T05:02:35.368Z,92.50
2017-10-09T05:05:05.920Z,92.20
2017-10-09T05:07:37.209Z,91.70
2017-10-09T05:10:07.720Z,91.70
2017-10-09T05:12:38.248Z,91.00
2017-10-09T05:15:09.543Z,90.60
2017-10-09T05:17:40.276Z,90.60
2017-10-09T05:20:11.941Z,90.70
2017-10-09T05:22:42.513Z,90.50
2017-10-09T05:25:13.041Z,89.50
2017-10-09T05:27:43.540Z,89.20
2017-10-09T05:30:14.820Z,88.00
2017-10-09T05:32:45.726Z,88.00
2017-10-09T05:35:17.045Z,88.70
2017-10-09T05:37:47.569Z,88.70
2017-10-09T05:40:18.243Z,89.10
2017-10-09T05:42:49.505Z,88.00
2017-10-09T05:45:20.025Z,88.00
2017-10-09T05:47:51.304Z,88.20
2017-10-09T05:50:22.032Z,88.10
2017-10-09T05:52:52.552Z,88.80
2017-10-09T05:55:23.205Z,88.20
2017-10-09T05:57:53.717Z,89.00
2017-10-09T06:00:24.236Z,88.60
2017-10-09T06:02:55.135Z,89.10
2017-10-09T06:05:25.649Z,89.30
2017-10-09T06:07:56.655Z,89.30
2017-10-09T06:10:27.170Z,89.60
2017-10-09T06:12:57.689Z,89.80
2017-10-09T06:15:28.261Z,89.00
2017-10-09T06:17:58.756Z,88.20
2017-10-09T06:20:29.465Z,86.20
2017-10-09T06:23:00.735Z,88.90
2017-10-09T06:25:31.373Z,88.90
2017-10-09T06:28:01.893Z,88.70
2017-10-09T06:30:32.400Z,87.70
2017-10-09T06:33:03.980Z,86.10
2017-10-09T06:35:34.493Z,86.00
2017-10-09T06:38:06.037Z,86.80
2017-10-09T06:40:37.321Z,87.80
2017-10-09T06:43:07.803Z,87.80
2017-10-09T06:45:39.085Z,88.00
2017-10-09T06:48:09.665Z,88.00
2017-10-09T06:50:40.778Z,88.50
2017-10-09T06:53:11.306Z,89.20
2017-10-09T06:55:41.820Z,89.50
2017-10-09T06:58:12.332Z,89.40
2017-10-09T07:00:42.920Z,88.20
2017-10-09T07:03:13.577Z,87.90
2017-10-09T07:05:44.898Z,86.20
2017-10-09T07:08:15.706Z,86.10
2017-10-09T07:10:46.219Z,86.80
2017-10-09T07:13:16.732Z,86.00
2017-10-09T07:15:47.240Z,86.60
2017-10-09T07:18:18.569Z,86.60
2017-10-09T07:20:49.313Z,86.60
2017-10-09T07:23:19.824Z,87.10
2017-10-09T07:25:50.331Z,87.30
2017-10-09T07:28:20.832Z,88.40
2017-10-09T07:30:51.388Z,88.30
2017-10-09T07:33:22.226Z,87.80
2017-10-09T07:35:52.721Z,89.10
2017-10-09T07:38:23.784Z,89.30
2017-10-09T07:40:55.873Z,89.30
2017-10-09T07:43:26.394Z,89.40
2017-10-09T07:45:56.893Z,89.80
2017-10-09T07:48:27.504Z,87.60
2017-10-09T07:50:59.305Z,88.10
2017-10-09T07:53:29.965Z,88.00
2017-10-09T07:56:00.697Z,87.10
2017-10-09T07:58:31.222Z,87.60
2017-10-09T08:01:01.725Z,88.80
2017-10-09T08:03:32.494Z,88.60
2017-10-09T08:06:03.026Z,86.60
2017-10-09T08:08:33.850Z,87.90
2017-10-09T08:11:04.572Z,87.90
2017-10-09T08:13:35.115Z,88.50
2017-10-09T08:16:05.629Z,89.60
2017-10-09T08:18:36.125Z,89.60
2017-10-09T08:21:07.081Z,89.30
2017-10-09T08:23:37.611Z,88.80
2017-10-09T08:26:08.344Z,87.60
2017-10-09T08:28:38.841Z,87.50
2017-10-09T08:31:10.122Z,87.10
2017-10-09T08:33:40.651Z,87.10
2017-10-09T08:36:11.164Z,88.30
2017-10-09T08:38:41.904Z,89.30
2017-10-09T08:41:12.433Z,89.70
2017-10-09T08:43:42.938Z,89.20
2017-10-09T08:46:13.453Z,88.60
2017-10-09T08:48:44.781Z,89.30
2017-10-09T08:51:15.620Z,89.30
2017-10-09T08:53:46.187Z,89.00
2017-10-09T08:56:17.028Z,89.20
2017-10-09T08:58:47.538Z,88.80
2017-10-09T09:01:18.799Z,89.20
2017-10-09T09:03:49.304Z,89.20
2017-10-09T09:06:20.796Z,90.00
2017-10-09T09:08:51.841Z,90.00
2017-10-09T09:11:22.334Z,90.40
2017-10-09T09:13:53.627Z,90.00
2017-10-09T09:16:24.139Z,90.00
2017-10-09T09:18:54.844Z,88.50
2017-10-09T09:21:32.283Z,88.50
2017-10-09T09:24:02.791Z,88.50
2017-10-09T09:26:33.274Z,88.00
2017-10-09T09:29:04.569Z,88.20
2017-10-09T09:31:35.085Z,88.20
2017-10-09T09:34:05.597Z,89.10
2017-10-09T09:36:36.930Z,89.30
2017-10-09T09:39:08.672Z,89.70
2017-10-09T09:41:39.173Z,89.70
2017-10-09T09:44:09.700Z,90.30
2017-10-09T09:46:40.203Z,90.40
2017-10-09T09:49:10.701Z,90.40
2017-10-09T09:51:43.376Z,90.40
2017-10-09T09:54:14.673Z,90.70
2017-10-09T09:56:45.768Z,90.60
2017-10-09T09:59:17.054Z,90.60
2017-10-09T10:01:47.592Z,90.60
2017-10-09T10:04:18.125Z,90.40
2017-10-09T10:06:48.638Z,90.50
2017-10-09T10:09:19.592Z,90.60
2017-10-09T10:11:50.138Z,90.40
2017-10-09T10:14:20.693Z,90.30
2017-10-09T10:16:51.208Z,90.30
2017-10-09T10:19:21.732Z,90.60
2017-10-09T10:21:52.539Z,90.60
2017-10-09T10:24:23.088Z,91.00
2017-10-09T10:26:53.885Z,90.90
2017-10-09T10:29:24.415Z,91.00
2017-10-09T10:31:54.981Z,91.00
2017-10-09T10:34:25.510Z,90.40
2017-10-09T10:36:56.033Z,91.00
2017-10-09T10:39:27.830Z,91.30
2017-10-09T10:41:59.124Z,91.90
2017-10-09T10:44:29.741Z,91.90
2017-10-09T10:47:00.329Z,91.90
2017-10-09T10:49:30.858Z,92.10
2017-10-09T10:52:01.771Z,92.20
2017-10-09T10:54:32.310Z,92.20
2017-10-09T10:57:03.216Z,91.90
2017-10-09T10:59:33.729Z,92.00
2017-10-09T11:02:04.237Z,92.20
2017-10-09T11:04:35.546Z,92.20
2017-10-09T11:07:06.057Z,92.20
2017-10-09T11:09:37.504Z,92.40
2017-10-09T11:12:08.038Z,92.60
2017-10-09T11:14:38.541Z,92.80
2017-10-09T11:17:09.054Z,93.00
2017-10-09T11:19:40.495Z,93.00
2017-10-09T11:22:12.127Z,93.10
2017-10-09T11:24:42.767Z,93.10
2017-10-09T11:27:13.701Z,93.20
2017-10-09T11:29:44.239Z,93.40
2017-10-09T11:32:14.741Z,93.50
2017-10-09T11:34:45.280Z,93.50
2017-10-09T11:37:15.973Z,93.50
2017-10-09T11:39:46.589Z,93.80
2017-10-09T11:42:17.095Z,93.50
2017-10-09T11:44:48.474Z,93.50
2017-10-09T11:47:19.001Z,93.50
2017-10-09T11:49:49.508Z,93.40
2017-10-09T11:52:21.296Z,93.50
2017-10-09T11:54:51.797Z,93.50
2017-10-09T11:57:23.380Z,93.60
2017-10-09T11:59:54.000Z,93.60
2017-10-09T12:02:24.505Z,93.80
2017-10-09T12:04:55.809Z,93.80
2017-10-09T12:07:26.396Z,93.80
2017-10-09T12:09:57.464Z,93.90
2017-10-09T12:12:28.125Z,93.80
2017-10-09T12:14:58.632Z,93.90
2017-10-09T12:17:29.147Z,94.00
2017-10-09T12:19:59.673Z,93.90
2017-10-09T12:22:30.182Z,93.70
2017-10-09T12:25:01.543Z,93.80
2017-10-09T12:27:32.432Z,93.70
2017-10-09T12:30:02.939Z,93.90
2017-10-09T12:32:33.453Z,94.20
2017-10-09T12:35:03.969Z,94.20
2017-10-09T12:37:34.493Z,94.20
2017-10-09T12:40:05.290Z,94.30
2017-10-09T12:42:35.794Z,94.30
2017-10-09T12:45:06.662Z,94.30
2017-10-09T12:47:37.928Z,94.20
2017-10-09T12:50:09.238Z,94.30
2017-10-09T12:52:40.544Z,94.40
2017-10-09T12:55:11.053Z,94.40
2017-10-09T12:57:42.949Z,94.60
2017-10-09T13:00:16.756Z,94.70
2017-10-09T13:02:47.310Z,94.70
2017-10-09T13:05:17.872Z,95.00
2017-10-09T13:07:49.171Z,94.60
2017-10-09T13:10:19.920Z,94.60
2017-10-09T13:12:50.437Z,94.50
2017-10-09T13:15:21.472Z,94.60
2017-10-09T13:17:52.011Z,94.80
2017-10-09T13:20:22.534Z,94.90
2017-10-09T13:22:53.047Z,94.90
2017-10-09T13:25:23.569Z,94.90
2017-10-09T13:27:54.449Z,94.90
2017-10-09T13:30:24.982Z,94.90
2017-10-09T13:32:55.465Z,94.90
2017-10-09T13:35:26.745Z,95.10
2017-10-09T13:37:57.491Z,95.10
2017-10-09T13:40:29.403Z,95.10
2017-10-09T13:43:00.355Z,95.00
2017-10-09T13:45:32.430Z,94.90
2017-10-09T13:48:03.112Z,94.90
2017-10-09T13:50:33.645Z,94.90
2017-10-09T13:53:05.679Z,95.00
2017-10-09T13:55:36.202Z,95.20
2017-10-09T13:58:07.057Z,95.10
2017-10-09T14:00:38.359Z,95.00
2017-10-09T14:03:09.064Z,95.00
2017-10-09T14:05:39.589Z,95.00
2017-10-09T14:08:10.097Z,95.00
2017-10-09T14:10:41.759Z,95.00
2017-10-09T14:13:13.089Z,95.10
2017-10-09T14:15:43.972Z,95.10
2017-10-09T14:18:14.486Z,95.20
2017-10-09T14:20:45.056Z,95.20
2017-10-09T14:23:15.608Z,95.30
2017-10-09T14:25:46.337Z,95.30
2017-10-09T14:28:17.382Z,95.30
2017-10-09T14:30:48.986Z,95.40
2017-10-09T14:40:52.416Z,95.50
2017-10-09T14:43:23.199Z,95.60
2017-10-09T14:45:54.174Z,95.60
2017-10-09T14:48:25.543Z,95.90
2017-10-09T14:50:56.199Z,95.90
2017-10-09T14:53:26.796Z,96.00
2017-10-09T14:55:58.118Z,96.20
2017-10-09T14:58:29.253Z,96.20
2017-10-09T15:00:59.791Z,96.20
2017-10-09T15:03:30.379Z,96.20
2017-10-09T15:06:00.908Z,96.20
2017-10-09T15:08:31.445Z,96.30
2017-10-09T15:11:02.187Z,96.30
2017-10-09T15:13:32.863Z,96.20
2017-10-09T15:16:04.762Z,96.20
2017-10-09T15:18:35.277Z,96.20
2017-10-09T15:21:06.713Z,96.20
2017-10-09T15:23:38.009Z,96.30
2017-10-09T15:26:08.539Z,96.30
2017-10-09T15:28:39.653Z,96.30
2017-10-09T15:31:10.161Z,96.30
2017-10-09T15:33:41.692Z,96.40
2017-10-09T15:36:12.421Z,96.40
2017-10-09T15:38:43.078Z,96.50
2017-10-09T15:41:13.629Z,96.60
2017-10-09T15:43:44.162Z,96.70
2017-10-09T15:46:15.814Z,96.80
2017-10-09T15:48:46.331Z,96.80
2017-10-09T15:51:16.854Z,96.80
2017-10-09T15:53:48.150Z,96.80
2017-10-09T15:56:18.694Z,96.80
2017-10-09T15:58:49.436Z,96.90
2017-10-09T16:01:19.960Z,97.00
2017-10-09T16:03:50.673Z,97.00
2017-10-09T16:06:21.221Z,97.00
2017-10-09T16:08:51.752Z,97.00
2017-10-09T16:11:22.332Z,97.00
2017-10-09T16:13:53.857Z,97.10
2017-10-09T16:16:26.398Z,97.30
2017-10-09T16:18:57.079Z,97.30
2017-10-09T16:21:27.629Z,97.30
2017-10-09T16:23:58.138Z,97.40
2017-10-09T16:26:28.659Z,97.40
2017-10-09T16:28:59.765Z,97.40
2017-10-09T16:31:30.281Z,97.40
2017-10-09T16:34:02.066Z,97.40
2017-10-09T16:36:32.591Z,97.50
2017-10-09T16:39:03.115Z,97.50
2017-10-09T16:41:33.626Z,97.60
2017-10-09T16:44:04.124Z,97.50
2017-10-09T16:46:35.931Z,97.60
2017-10-09T16:49:06.465Z,97.60
2017-10-09T16:51:37.981Z,97.70
2017-10-09T16:54:08.728Z,97.60
2017-10-09T16:56:39.393Z,97.60
2017-10-09T16:59:10.698Z,97.50
2017-10-09T17:01:41.193Z,97.50
2017-10-09T17:04:12.301Z,97.40
2017-10-09T17:06:42.824Z,97.40
2017-10-09T17:09:13.376Z,97.40
2017-10-09T17:11:44.660Z,97.50
2017-10-09T17:14:15.416Z,97.50
2017-10-09T17:16:47.082Z,97.50
2017-10-09T17:19:17.829Z,97.40
2017-10-09T17:21:48.585Z,97.60
2017-10-09T17:24:19.883Z,97.70
2017-10-09T17:26:50.409Z,97.70
2017-10-09T17:29:21.684Z,97.80
2017-10-09T17:31:52.180Z,97.80
2017-10-09T17:34:23.027Z,97.90
2017-10-09T17:36:53.576Z,98.00
2017-10-09T17:39:24.172Z,98.00
2017-10-09T17:41:54.694Z,98.10
2017-10-09T17:44:25.470Z,98.20
2017-10-09T17:46:56.604Z,98.20
2017-10-09T17:49:27.130Z,98.20
2017-10-09T17:51:58.704Z,98.30
2017-10-09T17:54:30.027Z,98.10
2017-10-09T17:57:00.799Z,98.10
2017-10-09T17:59:32.076Z,98.00
2017-10-09T18:02:02.615Z,98.00
2017-10-09T18:04:33.648Z,98.00
2017-10-09T18:07:04.153Z,98.00
2017-10-09T18:09:34.661Z,98.00
2017-10-09T18:12:05.945Z,98.00
2017-10-09T18:14:36.448Z,98.00
2017-10-09T18:17:08.071Z,98.00
2017-10-09T18:19:38.590Z,98.00
2017-10-09T18:22:09.602Z,98.10
2017-10-09T18:24:40.132Z,98.10
2017-10-09T18:27:10.681Z,98.10
2017-10-09T18:29:41.176Z,98.10
2017-10-09T18:32:11.882Z,98.10
2017-10-09T18:34:43.561Z,98.40
2017-10-09T18:37:14.072Z,98.10
2017-10-09T18:39:45.348Z,98.20
2017-10-09T18:42:16.074Z,98.20
2017-10-09T18:44:46.796Z,98.20
2017-10-09T18:47:18.617Z,98.20
2017-10-09T18:49:49.912Z,98.20
2017-10-09T18:52:21.806Z,98.20
2017-10-09T18:54:53.181Z,98.30
2017-10-09T18:57:24.253Z,98.30
2017-10-09T18:59:57.482Z,98.30
2017-10-09T19:02:31.357Z,98.40
2017-10-09T19:05:09.140Z,98.30
2017-10-09T19:07:40.429Z,98.30
2017-10-09T19:10:11.561Z,98.30
2017-10-09T19:12:45.054Z,98.30
2017-10-09T19:15:15.816Z,98.40
2017-10-09T19:17:46.336Z,98.40
2017-10-09T19:20:16.895Z,98.40
2017-10-09T19:22:47.625Z,98.50
2017-10-09T19:25:18.137Z,98.60
2017-10-09T19:27:48.730Z,98.50
2017-10-09T19:30:19.470Z,98.50
2017-10-09T19:32:50.204Z,98.50
2017-10-09T19:35:20.719Z,98.60
2017-10-09T19:37:51.981Z,98.70
2017-10-09T19:40:22.936Z,98.70
2017-10-09T19:42:53.430Z,98.70
2017-10-09T19:45:24.729Z,98.70
2017-10-09T19:47:55.249Z,98.70
2017-10-09T19:50:25.805Z,98.70
2017-10-09T19:52:56.721Z,98.60
2017-10-09T19:55:27.224Z,98.60
2017-10-09T19:57:58.122Z,98.50
2017-10-09T20:00:29.661Z,98.50
2017-10-09T20:03:00.182Z,98.50
2017-10-09T20:05:30.705Z,98.50
2017-10-09T20:08:01.218Z,98.50
2017-10-09T20:10:32.244Z,98.50
2017-10-09T20:13:02.753Z,98.50
2017-10-09T20:15:33.286Z,98.60
2017-10-09T20:18:03.802Z,98.70
2017-10-09T20:20:35.281Z,98.90
2017-10-09T20:23:06.166Z,98.80
2017-10-09T20:25:36.769Z,99.10
2017-10-09T20:28:07.845Z,99.30
2017-10-09T20:30:38.568Z,99.30
2017-10-09T20:33:09.079Z,99.40
2017-10-09T20:35:40.075Z,99.50
2017-10-09T20:38:10.612Z,99.50
2017-10-09T20:40:41.633Z,99.70
2017-10-09T20:43:12.898Z,99.60
2017-10-09T20:45:43.896Z,99.60
2017-10-09T20:48:14.461Z,99.90
2017-10-09T20:50:44.985Z,99.80
2017-10-09T20:53:16.256Z,99.50
2017-10-09T20:55:46.761Z,99.50
2017-10-09T20:58:17.845Z,99.60
2017-10-09T21:00:48.394Z,99.70
2017-10-09T21:03:18.900Z,99.90
2017-10-09T21:05:49.436Z,99.90
2017-10-09T21:08:19.930Z,99.90
2017-10-09T21:10:51.086Z,99.60
2017-10-09T21:13:21.598Z,99.50
2017-10-09T21:15:52.651Z,99.50
2017-10-09T21:18:23.930Z,99.80
2017-10-09T21:20:54.466Z,99.80
2017-10-09T21:23:24.985Z,99.60
2017-10-09T21:25:55.484Z,99.50
2017-10-09T21:28:26.379Z,99.50
2017-10-09T21:30:58.925Z,99.90
2017-10-09T21:33:29.773Z,99.80
2017-10-09T21:36:00.649Z,99.90
2017-10-09T21:38:32.010Z,99.60
2017-10-09T21:41:02.553Z,99.60
2017-10-09T21:43:33.802Z,99.70
2017-10-09T21:46:04.878Z,99.90
2017-10-09T21:48:35.450Z,99.90
2017-10-09T21:51:05.959Z,99.90
2017-10-09T21:53:37.233Z,99.90
2017-10-09T21:56:07.767Z,99.90
2017-10-09T21:58:39.624Z,99.90
2017-10-09T22:01:10.124Z,99.90
2017-10-09T22:03:41.655Z,99.40
2017-10-09T22:06:12.183Z,99.30
2017-10-09T22:08:42.672Z,99.00
2017-10-09T22:11:13.193Z,99.00
2017-10-09T22:13:43.697Z,99.20
2017-10-09T22:16:15.589Z,99.20
2017-10-09T22:18:46.098Z,99.20
2017-10-09T22:21:16.624Z,99.40
2017-10-09T22:23:47.136Z,99.10
2017-10-09T22:26:18.644Z,98.90
2017-10-09T22:28:49.561Z,98.90
2017-10-09T22:31:20.284Z,99.00
2017-10-09T22:33:52.049Z,99.20
2017-10-09T22:36:23.560Z,99.40
2017-10-09T22:38:54.092Z,99.60
2017-10-09T22:41:25.436Z,99.90
2017-10-09T22:43:55.922Z,99.80
2017-10-09T22:46:26.685Z,99.90
2017-10-09T22:48:57.198Z,99.70
2017-10-09T22:51:27.709Z,99.50
2017-10-09T22:53:58.202Z,99.50
2017-10-09T22:56:29.480Z,99.60
2017-10-09T22:59:00.486Z,99.50
2017-10-09T23:01:31.784Z,99.80
2017-10-09T23:04:02.537Z,99.80
2017-10-09T23:06:33.051Z,99.70
2017-10-09T23:09:04.328Z,99.80
2017-10-09T23:11:35.003Z,99.80
2017-10-09T23:14:05.529Z,99.80
2017-10-09T23:16:37.188Z,99.90
2017-10-09T23:19:07.684Z,99.90
2017-10-09T23:21:39.004Z,99.80
2017-10-09T23:24:09.535Z,99.80
2017-10-09T23:26:40.037Z,99.80
2017-10-09T23:29:11.169Z,99.80
2017-10-09T23:31:41.678Z,99.80
2017-10-09T23:34:12.538Z,99.80
2017-10-09T23:36:43.050Z,99.80
2017-10-09T23:39:13.541Z,99.70
2017-10-09T23:41:44.070Z,99.80
2017-10-09T23:44:14.617Z,99.80
2017-10-09T23:46:46.336Z,99.70
2017-10-09T23:49:16.840Z,99.70
2017-10-09T23:51:47.343Z,99.60
2017-10-09T23:54:17.863Z,99.70
2017-10-09T23:56:48.397Z,99.60
2017-10-09T23:59:19.293Z,99.60
